Time;durP1;ratioP1;P1;durP2;ratioP2;P2;SDS_P1;SDS_P2;PMS_P1;PMS_P2;Temp;Humidity;BMP_temperature;BMP_pressure;BME280_temperature;BME280_humidity;BME280_pressure;Samples;Min_cycle;Max_cycle;Signal;HPM_P1;HPM_P2
2023/10/27 00:04:25;;;;;;;11.55;2.60;;;;;;;19.12;50.07;99065.09;16110205;19;129405;-43
2023/10/27 00:09:47;;;;;;;10.30;2.95;;;;;;;19.10;50.13;99061.78;16109500;19;131291;-43
2023/10/27 00:15:09;;;;;;;7.68;1.98;;;;;;;19.08;50.31;99053.78;16107578;19;131133;-43
2023/10/27 00:20:31;;;;;;;10.25;2.22;;;;;;;19.06;50.14;99062.41;16113940;19;133382;-41
2023/10/27 00:25:53;;;;;;;9.02;2.60;;;;;;;19.04;49.96;99058.25;16109543;19;130727;-42
2023/10/27 00:31:15;;;;;;;8.80;2.03;;;;;;;19.02;50.27;99055.78;16113279;19;130773;-42
2023/10/27 00:36:37;;;;;;;8.73;2.30;;;;;;;19.00;50.08;99048.91;16111888;19;129850;-43
2023/10/27 00:41:59;;;;;;;8.82;2.08;;;;;;;18.98;49.97;99049.16;16113210;19;130120;-41
2023/10/27 00:47:23;;;;;;;5.25;2.30;;;;;;;18.96;50.16;99045.88;16107044;19;130841;-44
2023/10/27 00:52:46;;;;;;;8.50;2.25;;;;;;;18.94;50.07;99042.59;16108658;19;130254;-41
2023/10/27 00:58:08;;;;;;;9.73;1.60;;;;;;;;;;16114705;19;130103;-43
2023/10/27 01:03:31;;;;;;;5.18;1.77;;;;;;;18.90;50.18;99038.75;16106975;19;130611;-42
2023/10/27 01:08:54;;;;;;;5.53;1.60;;;;;;;18.88;50.32;99040.97;16103688;19;131311;-46
2023/10/27 01:14:17;;;;;;;7.32;1.83;;;;;;;18.88;50.21;99039.06;16105301;19;130189;-49
2023/10/27 01:19:39;;;;;;;5.43;1.77;;;;;;;18.86;50.25;99030.19;16112045;19;129366;-42
2023/10/27 01:25:01;;;;;;;9.70;1.77;;;;;;;18.85;50.23;99034.09;16113778;19;131044;-44
2023/10/27 01:30:24;;;;;;;6.03;1.73;;;;;;;18.83;49.97;99028.00;16109157;19;131232;-44
2023/10/27 01:35:45;;;;;;;4.28;1.92;;;;;;;18.83;50.12;99024.44;16108742;19;131260;-42
2023/10/27 01:41:07;;;;;;;7.43;1.90;;;;;;;18.82;49.97;99022.78;16106711;19;131257;-43
2023/10/27 01:46:29;;;;;;;5.25;1.80;;;;;;;18.80;50.01;99019.47;16117441;19;129706;-44
2023/10/27 01:51:51;;;;;;;4.80;1.60;;;;;;;18.80;50.22;99016.69;16123030;19;134855;-43
2023/10/27 01:57:13;;;;;;;5.75;1.58;;;;;;;18.77;50.47;99016.16;16123554;19;129495;-45
2023/10/27 02:02:35;;;;;;;7.00;1.63;;;;;;;18.76;49.86;99003.44;16123267;19;129860;-43
2023/10/27 02:07:58;;;;;;;5.40;1.70;;;;;;;18.76;50.25;99000.66;16116398;19;130647;-43
2023/10/27 02:13:20;;;;;;;4.55;1.48;;;;;;;18.74;50.28;98997.34;16120927;19;129781;-42
2023/10/27 02:18:42;;;;;;;5.78;1.90;;;;;;;18.74;50.04;98999.31;16125314;19;131609;-42
2023/10/27 02:24:05;;;;;;;4.40;1.58;;;;;;;18.73;49.96;98986.56;16118971;19;130782;-46
2023/10/27 02:29:26;;;;;;;5.93;1.45;;;;;;;18.71;50.06;98989.63;16117455;19;131827;-41
2023/10/27 02:34:48;;;;;;;3.65;1.33;;;;;;;18.71;50.17;98988.81;16118554;19;129837;-42
2023/10/27 02:40:11;;;;;;;3.63;1.10;;;;;;;18.70;49.96;98981.63;16113797;19;129338;-41
2023/10/27 02:45:33;;;;;;;5.72;1.30;;;;;;;18.69;50.12;98975.25;16118728;19;131301;-42
2023/10/27 02:50:55;;;;;;;2.65;1.30;;;;;;;18.68;50.00;98973.63;16111473;19;129507;-46
2023/10/27 02:56:17;;;;;;;5.38;1.42;;;;;;;18.67;50.24;98971.97;16114836;19;129781;-41
2023/10/27 03:01:39;;;;;;;3.80;1.27;;;;;;;18.66;50.42;98975.84;16116437;19;130620;-41
2023/10/27 03:07:01;;;;;;;3.67;1.40;;;;;;;18.66;50.12;98967.53;16115469;19;133282;-43
2023/10/27 03:12:23;;;;;;;6.25;1.63;;;;;;;18.66;50.08;98963.94;16118682;19;129934;-42
2023/10/27 03:17:45;;;;;;;7.20;1.40;;;;;;;18.65;50.30;98970.59;16113074;19;129723;-42
2023/10/27 03:23:07;;;;;;;3.97;1.60;;;;;;;18.64;50.32;98972.53;16116293;19;129966;-42
2023/10/27 03:28:30;;;;;;;3.60;1.30;;;;;;;18.63;50.35;98970.88;16118609;19;129952;-43
2023/10/27 03:33:52;;;;;;;2.50;1.20;;;;;;;18.62;50.37;98966.47;16114918;19;131357;-42
2023/10/27 03:39:14;;;;;;;2.85;1.40;;;;;;;18.61;50.09;98964.81;16107547;19;133330;-43
2023/10/27 03:44:36;;;;;;;5.10;1.88;;;;;;;18.61;50.05;98978.66;16109205;19;129718;-42
2023/10/27 03:49:58;;;;;;;2.63;1.30;;;;;;;18.59;50.36;98969.81;16107966;19;130553;-41
2023/10/27 03:55:20;;;;;;;4.13;1.45;;;;;;;18.58;49.93;98957.13;16108071;19;129493;-42
2023/10/27 04:00:42;;;;;;;3.25;1.00;;;;;;;18.57;49.80;98963.78;16114900;19;130018;-42
2023/10/27 04:06:05;;;;;;;3.03;1.00;;;;;;;18.57;50.29;98972.09;16108413;19;131777;-44
2023/10/27 04:11:27;;;;;;;3.22;1.13;;;;;;;18.55;50.24;98969.59;16109092;19;130254;-42
2023/10/27 04:16:49;;;;;;;2.42;1.52;;;;;;;18.54;49.94;98965.16;16114925;19;131138;-42
2023/10/27 04:22:11;;;;;;;5.07;1.17;;;;;;;18.54;50.03;98967.13;16108407;19;135005;-42
2023/10/27 04:27:33;;;;;;;2.47;1.10;;;;;;;18.53;50.02;98971.00;16107411;19;130224;-45
2023/10/27 04:32:55;;;;;;;2.92;0.95;;;;;;;18.51;50.35;98965.78;16113001;19;130315;-42
2023/10/27 04:38:18;;;;;;;2.58;1.30;;;;;;;18.52;49.89;98969.34;16109915;19;130739;-42
2023/10/27 04:43:40;;;;;;;3.72;0.95;;;;;;;18.51;50.19;98978.78;16109784;19;130610;-43
2023/10/27 04:49:02;;;;;;;3.28;1.10;;;;;;;18.51;50.21;98976.00;16109053;19;131836;-41
2023/10/27 04:54:24;;;;;;;4.72;1.60;;;;;;;18.49;50.10;98979.09;16106519;19;130039;-42
2023/10/27 04:59:46;;;;;;;4.20;1.00;;;;;;;18.48;49.96;98982.13;16104387;19;130507;-43
2023/10/27 05:05:08;;;;;;;3.28;1.25;;;;;;;18.48;49.86;98977.44;16107654;19;131226;-44
2023/10/27 05:10:31;;;;;;;4.07;1.20;;;;;;;18.46;50.22;98980.47;16111187;19;131172;-42
2023/10/27 05:15:54;;;;;;;2.40;1.20;;;;;;;18.48;49.92;98984.88;16107427;19;129843;-42
2023/10/27 05:21:17;;;;;;;2.53;0.80;;;;;;;18.45;49.94;98983.53;16099962;19;130966;-44
2023/10/27 05:26:39;;;;;;;3.30;0.70;;;;;;;18.46;50.47;98977.69;16104811;19;129913;-42
2023/10/27 05:32:02;;;;;;;2.67;1.20;;;;;;;18.51;50.10;98978.78;16097661;19;131266;-42
2023/10/27 05:37:23;;;;;;;2.50;1.00;;;;;;;18.56;50.44;98981.50;16101284;19;131444;-43
2023/10/27 05:42:45;;;;;;;4.10;1.33;;;;;;;18.57;50.07;98977.63;16103211;19;130398;-42
2023/10/27 05:48:07;;;;;;;4.75;1.38;;;;;;;18.57;50.34;98988.69;16100647;19;131160;-43
2023/10/27 05:53:29;;;;;;;4.63;1.08;;;;;;;18.57;50.17;98977.63;16095482;19;129776;-42
2023/10/27 05:58:51;;;;;;;1.77;0.90;;;;;;;18.56;50.36;98976.78;16103893;19;133542;-42
2023/10/27 06:04:13;;;;;;;4.30;0.98;;;;;;;18.55;50.31;98986.19;16103166;19;130441;-42
2023/10/27 06:09:36;;;;;;;6.15;0.98;;;;;;;18.54;50.11;98990.09;16109570;19;129416;-43
2023/10/27 06:14:58;;;;;;;2.25;0.60;;;;;;;18.53;49.89;98999.50;16110074;19;131030;-42
2023/10/27 06:20:20;;;;;;;2.67;0.90;;;;;;;18.52;49.97;99002.59;16103695;19;129685;-41
2023/10/27 06:25:46;;;;;;;2.25;0.80;;;;;;;18.50;50.19;98988.19;16105470;19;129410;-41
2023/10/27 06:31:09;;;;;;;3.13;0.82;;;;;;;18.49;50.11;98997.63;16107116;19;129453;-43
2023/10/27 06:36:32;;;;;;;3.70;0.90;;;;;;;18.49;50.29;99003.16;16114826;19;134702;-45
2023/10/27 06:41:54;;;;;;;1.52;0.80;;;;;;;18.45;50.00;99019.53;16121452;19;131206;-43
2023/10/27 06:47:18;;;;;;;3.05;0.70;;;;;;;18.45;50.15;99014.84;16123394;19;130459;-42
2023/10/27 06:52:43;;;;;;;2.58;1.00;;;;;;;18.44;50.38;99029.81;16117932;19;130028;-43
2023/10/27 06:58:07;;;;;;;0.93;0.50;;;;;;;18.43;50.11;99030.91;16116436;19;134439;-43
2023/10/27 07:03:29;;;;;;;1.67;0.73;;;;;;;18.42;50.34;99026.50;16108078;19;131606;-42
2023/10/27 07:08:52;;;;;;;2.63;0.93;;;;;;;18.40;50.06;99037.03;16111735;19;130167;-42
2023/10/27 07:14:14;;;;;;;2.60;0.90;;;;;;;18.38;50.33;99046.72;16109014;19;129401;-43
2023/10/27 07:19:36;;;;;;;7.30;0.80;;;;;;;18.38;50.40;99057.78;16115949;19;131210;-43
2023/10/27 07:24:58;;;;;;;3.00;0.60;;;;;;;18.36;50.43;99058.06;16122275;19;129826;-43
2023/10/27 07:30:20;;;;;;;3.03;0.80;;;;;;;18.36;50.30;99066.38;16118927;19;129371;-43
2023/10/27 07:35:42;;;;;;;5.63;0.75;;;;;;;18.35;50.01;99059.19;16117007;19;129721;-43
2023/10/27 07:41:08;;;;;;;2.38;0.85;;;;;;;18.35;50.29;99059.19;16114439;19;131138;-43
2023/10/27 07:46:31;;;;;;;2.08;0.70;;;;;;;18.34;50.39;99063.06;16113510;19;129578;-42
2023/10/27 07:51:53;;;;;;;2.15;0.70;;;;;;;18.34;50.43;99063.06;16112860;19;129844;-42
2023/10/27 07:57:15;;;;;;;4.65;0.73;;;;;;;18.33;50.42;99055.91;16114564;19;129819;-42
2023/10/27 08:02:38;;;;;;;1.20;0.50;;;;;;;18.34;50.01;99068.59;16112141;19;129967;-44
2023/10/27 08:08:03;;;;;;;1.42;0.70;;;;;;;18.34;50.21;99060.28;16104536;19;131754;-43
2023/10/27 08:13:25;;;;;;;1.40;0.70;;;;;;;18.34;50.28;99068.59;16113746;19;130160;-44
2023/10/27 08:18:47;;;;;;;1.10;0.55;;;;;;;18.34;50.23;99071.38;16118874;19;129858;-42
2023/10/27 08:24:09;;;;;;;4.50;0.70;;;;;;;18.36;50.01;99071.91;16113735;19;131481;-43
2023/10/27 08:29:31;;;;;;;1.38;0.60;;;;;;;18.36;50.20;99074.69;16116678;19;130517;-42
2023/10/27 08:34:53;;;;;;;2.15;0.90;;;;;;;18.37;49.96;99098.47;16120048;19;130138;-42
2023/10/27 08:40:15;;;;;;;1.30;0.60;;;;;;;18.37;50.07;99089.34;16114015;19;129724;-42
2023/10/27 08:45:38;;;;;;;1.17;0.60;;;;;;;18.37;49.97;99094.91;16115401;19;129878;-46
2023/10/27 08:51:07;;;;;;;1.20;0.50;;;;;;;18.39;50.28;99098.22;16109204;19;130456;-46
2023/10/27 08:56:30;;;;;;;1.88;0.70;;;;;;;18.41;50.30;99101.50;16109405;19;132617;-42
2023/10/27 09:01:55;;;;;;;1.02;0.80;;;;;;;18.42;50.00;99100.41;16115277;19;130590;-42
2023/10/27 09:07:17;;;;;;;2.00;0.70;;;;;;;18.43;49.96;99104.81;16111336;19;130520;-42
2023/10/27 09:12:39;;;;;;;1.33;0.60;;;;;;;18.42;50.30;99104.00;16108762;19;129384;-42
2023/10/27 09:18:02;;;;;;;1.40;0.50;;;;;;;18.41;50.08;99113.44;16106534;19;130296;-43
2023/10/27 09:23:42;;;;;;;1.52;0.73;;;;;;;18.43;50.02;99115.91;16108689;19;129490;-42
2023/10/27 09:29:04;;;;;;;1.05;0.60;;;;;;;18.42;49.72;99123.41;16108035;19;132209;-41
2023/10/27 09:34:29;;;;;;;2.17;0.60;;;;;;;18.38;50.03;99124.22;16103960;19;130063;-42
2023/10/27 09:39:52;;;;;;;;;;;;;;;18.48;49.89;99135.25;16111958;19;130776;-42
2023/10/27 09:45:14;;;;;;;6.18;1.23;;;;;;;18.75;49.33;99133.94;16110900;19;131815;-43
2023/10/27 09:50:38;;;;;;;2.25;0.80;;;;;;;19.06;49.02;99131.69;16100496;19;132624;-42
2023/10/27 09:56:01;;;;;;;2.67;0.80;;;;;;;19.37;48.42;99134.13;16106820;19;131444;-41
2023/10/27 10:01:23;;;;;;;4.63;0.95;;;;;;;19.60;48.12;99137.19;16105601;19;130189;-44
2023/10/27 10:06:45;;;;;;;4.88;0.73;;;;;;;19.78;47.35;99140.31;16108531;19;130271;-42
2023/10/27 10:12:14;;;;;;;2.70;0.80;;;;;;;19.85;47.40;99143.53;16122564;19;129268;-42
2023/10/27 10:17:40;;;;;;;3.63;0.90;;;;;;;19.88;47.29;99131.84;16118378;19;131415;-43
2023/10/27 10:23:02;;;;;;;2.63;1.20;;;;;;;19.88;47.14;99131.03;16118082;19;131219;-43
2023/10/27 10:28:29;;;;;;;3.75;0.80;;;;;;;19.85;47.29;99137.97;16122573;19;129731;-42
2023/10/27 10:34:08;;;;;;;4.40;1.00;;;;;;;19.81;47.54;99136.94;16120994;19;132643;-41
2023/10/27 10:40:08;;;;;;;3.95;0.90;;;;;;;19.72;47.44;99133.16;16120543;19;129633;-44
2023/10/27 10:45:31;;;;;;;4.03;1.10;;;;;;;19.63;47.80;99135.78;16123794;19;130030;-42
2023/10/27 10:50:55;;;;;;;3.38;1.10;;;;;;;19.58;47.33;99141.41;16118047;19;131167;-42
2023/10/27 10:56:18;;;;;;;8.13;1.60;;;;;;;19.50;47.69;99142.88;16119839;19;129680;-42
2023/10/27 11:01:39;;;;;;;6.05;2.45;;;;;;;19.44;48.03;99150.44;16114429;19;130339;-41
2023/10/27 11:07:03;;;;;;;10.98;3.63;;;;;;;19.40;48.27;99154.09;16102667;19;130364;-41
2023/10/27 11:12:25;;;;;;;16.15;5.10;;;;;;;19.39;48.32;99153.25;16112470;19;130281;-42
2023/10/27 11:17:53;;;;;;;17.10;5.53;;;;;;;19.42;48.41;99154.63;16109740;19;131585;-42
2023/10/27 11:23:16;;;;;;;17.63;5.43;;;;;;;19.45;48.59;99151.25;16118928;19;131891;-45
2023/10/27 11:28:43;;;;;;;12.00;4.97;;;;;;;19.51;48.39;99145.34;16115815;19;131100;-42
2023/10/27 11:34:07;;;;;;;14.07;5.05;;;;;;;19.60;48.51;99139.16;16113569;19;130760;-43
2023/10/27 11:39:33;;;;;;;18.38;4.80;;;;;;;19.68;48.41;99155.13;16113459;19;130549;-42
2023/10/27 11:44:55;;;;;;;14.95;4.63;;;;;;;19.75;48.44;99161.16;16115836;19;130889;-43
2023/10/27 11:50:17;;;;;;;18.13;4.40;;;;;;;19.82;48.10;99155.22;16112645;19;136298;-42
2023/10/27 11:55:39;;;;;;;10.27;4.50;;;;;;;19.89;47.77;99155.69;16114921;19;129706;-43
2023/10/27 12:01:01;;;;;;;10.75;4.35;;;;;;;20.07;47.65;99156.03;16113993;19;129797;-43
2023/10/27 12:06:23;;;;;;;11.63;4.30;;;;;;;20.30;47.53;99165.41;16114975;19;130527;-41
2023/10/27 12:11:45;;;;;;;15.65;4.18;;;;;;;20.47;46.96;99161.28;16105831;19;130431;-43
2023/10/27 12:17:06;;;;;;;19.40;4.60;;;;;;;20.54;46.78;99153.38;16108165;19;132960;-42
2023/10/27 12:22:30;;;;;;;15.98;4.38;;;;;;;20.58;46.79;99160.00;16113129;19;129686;-41
2023/10/27 12:27:52;;;;;;;19.65;4.78;;;;;;;20.55;47.03;99147.56;16112156;19;130809;-42
2023/10/27 12:33:14;;;;;;;15.07;3.70;;;;;;;20.53;46.59;99130.34;16117131;19;130206;-44
2023/10/27 12:38:36;;;;;;;24.77;4.20;;;;;;;20.52;46.90;99136.19;16118013;19;129355;-47
2023/10/27 12:43:58;;;;;;;11.88;3.75;;;;;;;20.48;47.27;99122.09;16107155;19;130622;-41
2023/10/27 12:49:20;;;;;;;21.50;5.03;;;;;;;20.44;47.01;99121.03;16109939;19;130531;-43
2023/10/27 12:54:42;;;;;;;20.40;4.35;;;;;;;20.38;47.16;99131.41;16112415;19;129689;-42
2023/10/27 13:00:10;;;;;;;13.95;3.70;;;;;;;20.34;47.30;99133.16;16110797;19;131223;-43
2023/10/27 13:05:35;;;;;;;21.88;5.18;;;;;;;20.29;47.44;99139.63;16110029;19;129492;-41
2023/10/27 13:11:02;;;;;;;14.93;3.97;;;;;;;20.23;47.37;99142.78;16104473;19;130430;-41
2023/10/27 13:16:25;;;;;;;14.00;3.90;;;;;;;20.17;47.33;99144.81;16110661;19;130007;-44
2023/10/27 13:21:47;;;;;;;12.98;3.17;;;;;;;20.10;47.16;99144.34;16092280;19;130543;-43
2023/10/27 13:27:09;;;;;;;13.80;3.25;;;;;;;20.03;47.28;99144.69;16097383;19;131335;-42
2023/10/27 13:32:32;;;;;;;15.25;3.15;;;;;;;19.96;47.54;99156.16;16102049;19;131621;-41
2023/10/27 13:38:04;;;;;;;9.70;2.55;;;;;;;19.91;47.59;99164.56;16109100;19;131402;-40
2023/10/27 13:43:27;;;;;;;7.32;2.92;;;;;;;19.87;47.61;99180.13;16104328;19;129039;-40
2023/10/27 13:48:49;;;;;;;8.65;2.40;;;;;;;19.83;47.53;99187.41;16101810;19;134353;-43
2023/10/27 13:54:11;;;;;;;12.27;2.55;;;;;;;19.80;47.43;99196.34;16109086;19;130495;-42
2023/10/27 13:59:33;;;;;;;7.78;2.38;;;;;;;19.75;47.44;99201.94;16109870;19;130140;-45
2023/10/27 14:04:55;;;;;;;12.25;2.10;;;;;;;19.74;47.28;99205.84;16106118;19;130859;-42
2023/10/27 14:10:18;;;;;;;8.68;2.08;;;;;;;19.75;46.65;99202.78;16105803;19;131115;-41
2023/10/27 14:15:41;;;;;;;10.32;2.08;;;;;;;19.75;46.92;99210.25;16102905;19;130462;-41
2023/10/27 14:21:04;;;;;;;8.15;2.35;;;;;;;19.74;46.93;99208.59;16109482;19;130834;-43
2023/10/27 14:26:26;;;;;;;12.38;2.08;;;;;;;19.69;46.92;99215.84;16102525;19;131635;-42
2023/10/27 14:31:48;;;;;;;5.88;1.85;;;;;;;19.66;46.79;99219.25;16094953;19;129615;-42
2023/10/27 14:37:10;;;;;;;8.13;1.63;;;;;;;19.63;46.81;99211.50;16106603;19;129673;-42
2023/10/27 14:42:32;;;;;;;7.22;1.70;;;;;;;19.59;47.06;99227.06;16105057;19;129554;-42
2023/10/27 14:47:54;;;;;;;9.05;2.30;;;;;;;19.56;47.21;99226.84;16102842;19;131660;-42
2023/10/27 14:53:16;;;;;;;11.00;2.38;;;;;;;19.52;47.34;99232.97;16113293;19;134882;-42
2023/10/27 14:58:39;;;;;;;7.93;2.83;;;;;;;19.49;47.27;99232.75;16117008;19;129588;-42
2023/10/27 15:04:02;;;;;;;8.38;3.33;;;;;;;19.46;47.49;99227.78;16121189;19;131876;-42
2023/10/27 15:09:24;;;;;;;9.52;3.15;;;;;;;19.42;47.59;99222.00;16120771;19;130544;-41
2023/10/27 15:14:50;;;;;;;6.15;2.33;;;;;;;19.41;47.68;99222.28;16117988;19;129466;-42
2023/10/27 15:20:12;;;;;;;6.90;2.63;;;;;;;19.37;47.56;99239.50;16113907;19;130739;-41
2023/10/27 15:25:35;;;;;;;10.05;2.90;;;;;;;19.35;47.46;99244.53;16117480;19;131291;-41
2023/10/27 15:31:07;;;;;;;6.50;2.47;;;;;;;19.32;48.00;99242.31;16111905;19;130745;-43
2023/10/27 15:36:29;;;;;;;8.18;2.67;;;;;;;19.30;48.10;99241.81;16105223;19;130514;-41
2023/10/27 15:41:57;;;;;;;8.57;2.83;;;;;;;19.28;47.92;99237.66;16110532;19;130144;-42
2023/10/27 15:47:18;;;;;;;10.00;2.20;;;;;;;19.26;48.00;99229.66;16099812;19;130071;-41
2023/10/27 15:52:40;;;;;;;6.80;2.08;;;;;;;19.25;48.00;99233.53;16111872;19;130605;-40
2023/10/27 15:58:03;;;;;;;9.52;2.20;;;;;;;19.27;48.45;99249.88;16106399;19;131147;-44
2023/10/27 16:03:25;;;;;;;6.05;2.25;;;;;;;19.29;48.52;99254.03;16110614;19;130347;-43
2023/10/27 16:08:47;;;;;;;14.60;2.80;;;;;;;19.38;48.46;99252.25;16113657;19;130200;-43
2023/10/27 16:14:09;;;;;;;8.77;2.15;;;;;;;19.52;48.05;99254.34;16112285;19;130763;-43
2023/10/27 16:19:31;;;;;;;13.52;2.25;;;;;;;19.62;47.66;99259.78;16109749;19;130485;-42
2023/10/27 16:24:53;;;;;;;12.00;2.58;;;;;;;19.67;47.94;99267.22;16116928;19;130258;-43
2023/10/27 16:30:15;;;;;;;7.25;2.00;;;;;;;19.67;47.92;99264.44;16114851;19;130881;-43
2023/10/27 16:35:36;;;;;;;5.97;2.17;;;;;;;19.65;48.22;99272.22;16115285;19;130930;-43
2023/10/27 16:41:04;;;;;;;14.00;2.35;;;;;;;19.61;48.05;99271.19;16108666;19;131701;-43
2023/10/27 16:46:27;;;;;;;10.07;2.50;;;;;;;19.55;48.38;99267.63;16111124;19;129510;-47
2023/10/27 16:51:51;;;;;;;9.00;1.70;;;;;;;19.50;48.31;99273.22;16109920;19;131535;-42
2023/10/27 16:57:13;;;;;;;5.82;2.17;;;;;;;19.45;48.22;99273.25;16104754;19;130798;-42
2023/10/27 17:02:35;;;;;;;8.60;2.15;;;;;;;19.41;48.26;99275.78;16106111;19;130497;-45
2023/10/27 17:07:58;;;;;;;7.20;2.35;;;;;;;19.43;48.72;99281.06;16105664;19;129577;-47
2023/10/27 17:13:20;;;;;;;9.02;1.95;;;;;;;19.64;48.30;99288.06;16105993;19;131396;-43
2023/10/27 17:18:42;;;;;;;7.97;2.35;;;;;;;19.98;47.83;99287.13;16105132;19;130871;-45
2023/10/27 17:24:05;;;;;;;5.75;1.80;;;;;;;20.26;47.27;99286.53;16103403;19;129640;-44
2023/10/27 17:29:30;;;;;;;6.30;1.98;;;;;;;20.44;47.33;99287.69;16100161;19;130156;-43
2023/10/27 17:34:52;;;;;;;4.97;1.80;;;;;;;20.51;47.07;99293.72;16099412;19;132455;-46
2023/10/27 17:40:15;;;;;;;8.40;2.03;;;;;;;20.52;46.82;99287.03;16107676;19;130780;-45
2023/10/27 17:45:37;;;;;;;6.35;1.52;;;;;;;20.48;47.25;99291.53;16105116;19;131012;-44
2023/10/27 17:51:00;;;;;;;7.30;1.98;;;;;;;20.42;47.01;99296.34;16108553;19;130960;-44
2023/10/27 17:56:22;;;;;;;3.65;1.42;;;;;;;20.36;47.47;99291.16;16107009;19;131775;-44
2023/10/27 18:01:48;;;;;;;8.32;1.95;;;;;;;20.28;47.61;99299.03;16104126;19;129878;-45
2023/10/27 18:07:12;;;;;;;5.95;1.88;;;;;;;20.19;47.85;99289.69;16102221;19;130674;-43
2023/10/27 18:12:36;;;;;;;10.63;1.67;;;;;;;20.12;48.04;99292.00;16109184;19;130782;-43
2023/10/27 18:17:58;;;;;;;7.28;1.77;;;;;;;20.05;48.04;99297.09;16106908;19;130812;-44
2023/10/27 18:23:20;;;;;;;8.98;1.88;;;;;;;20.02;48.56;99306.00;16099770;19;130919;-43
2023/10/27 18:28:43;;;;;;;7.57;1.45;;;;;;;19.98;48.66;99306.56;16111055;19;131633;-45
2023/10/27 18:34:05;;;;;;;10.05;1.92;;;;;;;19.97;48.49;99302.13;16112726;19;130833;-45
2023/10/27 18:39:27;;;;;;;10.02;2.17;;;;;;;20.01;49.02;99301.56;16117850;19;129737;-44
2023/10/27 18:44:50;;;;;;;12.27;2.17;;;;;;;20.17;48.80;99289.19;16117168;19;131256;-43
2023/10/27 18:50:12;;;;;;;11.43;1.80;;;;;;;20.43;48.74;99297.19;16115032;19;130738;-45
2023/10/27 18:55:34;;;;;;;13.18;2.05;;;;;;;20.70;48.33;99281.78;16117610;19;131730;-45
2023/10/27 19:00:59;;;;;;;14.55;2.25;;;;;;;20.97;47.89;99288.63;16117151;19;133827;-44
2023/10/27 19:06:21;;;;;;;12.13;1.83;;;;;;;21.19;47.30;99286.03;16114958;19;131505;-47
2023/10/27 19:11:43;;;;;;;6.15;1.77;;;;;;;21.40;46.81;99291.28;16116660;19;130717;-45
2023/10/27 19:17:06;;;;;;;10.02;2.17;;;;;;;21.57;46.62;99292.66;16115557;19;130959;-45
2023/10/27 19:22:27;;;;;;;11.55;1.52;;;;;;;21.71;46.75;99307.44;16117366;19;129865;-42
2023/10/27 19:27:49;;;;;;;5.70;1.63;;;;;;;21.82;46.27;99308.06;16115275;19;129345;-44
2023/10/27 19:33:11;;;;;;;18.52;2.42;;;;;;;21.88;46.17;99312.41;16112868;19;135362;-42
2023/10/27 19:38:35;;;;;;;8.27;2.00;;;;;;;21.91;46.54;99313.75;16114111;19;130850;-42
2023/10/27 19:43:57;;;;;;;9.32;1.77;;;;;;;21.85;46.38;99323.31;16113632;19;131148;-43
2023/10/27 19:49:19;;;;;;;5.55;1.38;;;;;;;21.77;46.12;99325.69;16104007;19;131198;-42
2023/10/27 19:54:42;;;;;;;8.93;1.90;;;;;;;21.70;46.39;99364.22;16104106;19;131419;-41
2023/10/27 20:00:06;;;;;;;10.68;1.70;;;;;;;21.65;46.70;99354.00;16106487;19;130220;-40
2023/10/27 20:05:27;;;;;;;9.07;2.28;;;;;;;21.59;47.13;99358.03;16101150;19;130100;-40
2023/10/27 20:10:50;;;;;;;8.40;1.77;;;;;;;21.55;47.03;99353.34;16108008;19;130275;-42
2023/10/27 20:16:15;;;;;;;11.90;2.63;;;;;;;21.55;47.20;99353.34;16095359;19;131037;-46
2023/10/27 20:21:37;;;;;;;9.73;1.90;;;;;;;21.55;46.84;99354.19;16109180;19;129347;-42
2023/10/27 20:27:01;;;;;;;6.47;1.70;;;;;;;21.55;46.80;99359.75;16111550;19;130091;-40
2023/10/27 20:32:23;;;;;;;5.93;1.33;;;;;;;21.50;46.68;99360.69;16113624;19;131856;-42
2023/10/27 20:37:48;;;;;;;8.32;1.42;;;;;;;21.45;47.19;99371.84;16112723;19;130255;-42
2023/10/27 20:43:10;;;;;;;7.68;1.95;;;;;;;21.37;47.26;99370.56;16109614;19;130322;-42
2023/10/27 20:48:33;;;;;;;9.18;1.65;;;;;;;21.29;47.11;99374.06;16110609;19;130778;-44
2023/10/27 20:53:55;;;;;;;8.18;1.40;;;;;;;21.19;47.29;99375.03;16113844;19;131111;-41
2023/10/27 20:59:17;;;;;;;12.02;1.88;;;;;;;21.09;47.50;99372.41;16109233;19;129442;-44
2023/10/27 21:04:39;;;;;;;6.88;1.52;;;;;;;20.99;47.58;99378.13;16114432;19;129560;-43
2023/10/27 21:10:01;;;;;;;8.95;1.60;;;;;;;20.89;47.85;99368.81;16107996;19;130999;-42
2023/10/27 21:15:23;;;;;;;10.88;1.80;;;;;;;20.82;47.90;99373.09;16115011;19;130460;-41
2023/10/27 21:20:45;;;;;;;5.85;1.60;;;;;;;20.75;47.92;99373.41;16110602;19;129716;-44
2023/10/27 21:26:07;;;;;;;5.28;1.67;;;;;;;20.67;48.44;99374.91;16109090;19;129958;-43
2023/10/27 21:31:30;;;;;;;7.40;1.98;;;;;;;20.60;48.31;99369.72;16109890;19;130997;-42
2023/10/27 21:36:52;;;;;;;6.43;1.50;;;;;;;20.55;48.64;99383.69;16109743;19;131855;-42
2023/10/27 21:42:14;;;;;;;5.70;1.65;;;;;;;20.49;48.58;99372.94;16108623;19;130470;-44
2023/10/27 21:47:36;;;;;;;4.20;1.33;;;;;;;20.44;48.59;99376.56;16101702;19;130829;-45
2023/10/27 21:53:00;;;;;;;7.05;1.52;;;;;;;20.39;48.66;99385.00;16105687;19;129768;-42
2023/10/27 21:58:22;;;;;;;6.07;1.50;;;;;;;20.33;49.02;99391.72;16102983;19;129554;-45
2023/10/27 22:03:44;;;;;;;7.45;1.67;;;;;;;20.27;48.75;99400.13;16110636;19;131011;-45
2023/10/27 22:09:06;;;;;;;6.15;1.77;;;;;;;20.22;48.92;99402.13;16113818;19;130516;-42
2023/10/27 22:14:29;;;;;;;9.23;1.60;;;;;;;20.16;48.90;99393.03;16103628;19;130524;-42
2023/10/27 22:19:51;;;;;;;4.32;1.23;;;;;;;20.11;48.77;99396.69;16119112;19;130492;-42
2023/10/27 22:25:13;;;;;;;5.35;1.55;;;;;;;20.06;48.70;99396.72;16119238;19;129612;-47
2023/10/27 22:30:35;;;;;;;6.00;1.58;;;;;;;20.03;48.93;99402.03;16124097;19;130566;-44
2023/10/27 22:35:57;;;;;;;5.53;1.45;;;;;;;20.01;48.96;99404.28;16117424;19;131090;-42
2023/10/27 22:41:21;;;;;;;8.52;1.50;;;;;;;19.96;49.18;99405.13;16115897;19;131762;-43
2023/10/27 22:46:44;;;;;;;4.80;1.75;;;;;;;19.93;48.82;99400.16;16120380;19;131119;-42
2023/10/27 22:52:06;;;;;;;4.43;1.48;;;;;;;19.91;48.97;99402.41;16121955;19;131688;-43
2023/10/27 22:57:30;;;;;;;2.05;1.00;;;;;;;19.86;48.84;99406.06;16106888;19;130031;-42
2023/10/27 23:02:52;;;;;;;4.68;1.30;;;;;;;19.83;49.06;99407.47;16111517;19;130555;-42
2023/10/27 23:08:14;;;;;;;4.65;1.50;;;;;;;19.82;48.77;99400.25;16117827;19;130436;-46
2023/10/27 23:13:40;;;;;;;8.05;1.75;;;;;;;19.86;49.13;99406.06;16113342;19;130882;-42
2023/10/27 23:19:03;;;;;;;5.35;1.50;;;;;;;19.84;48.97;99413.84;16119380;19;131332;-42
2023/10/27 23:24:26;;;;;;;4.43;1.45;;;;;;;19.82;48.89;99416.06;16120727;19;129724;-42
2023/10/27 23:29:48;;;;;;;4.90;1.30;;;;;;;19.79;48.84;99416.66;16118975;19;130977;-43
2023/10/27 23:35:11;;;;;;;3.67;1.30;;;;;;;19.78;48.85;99426.09;16117867;19;129782;-41
2023/10/27 23:40:33;;;;;;;4.25;1.60;;;;;;;19.74;48.83;99427.81;16119328;19;129598;-42
2023/10/27 23:45:55;;;;;;;3.88;1.50;;;;;;;19.72;49.15;99428.09;16120737;19;130418;-42
2023/10/27 23:51:17;;;;;;;3.67;1.40;;;;;;;19.67;48.65;99419.81;16113279;19;131690;-42
2023/10/27 23:56:39;;;;;;;3.90;1.33;;;;;;;19.65;49.07;99422.88;16117273;19;131558;-41
